createdAt,value
2023-05-26T00:01:32.960Z,12.70
2023-05-26T00:05:41.875Z,12.10
2023-05-26T00:09:44.202Z,12.20
2023-05-26T00:13:46.308Z,12.30
2023-05-26T00:17:48.413Z,12.20
2023-05-26T00:21:50.524Z,12.10
2023-05-26T00:25:52.484Z,12.10
2023-05-26T00:29:54.584Z,12.20
2023-05-26T00:33:56.604Z,12.30
2023-05-26T00:37:58.618Z,12.40
2023-05-26T00:42:01.943Z,12.60
2023-05-26T00:46:04.052Z,12.40
2023-05-26T00:50:07.291Z,12.30
2023-05-26T00:54:10.606Z,11.90
2023-05-26T00:58:12.914Z,12.00
2023-05-26T01:02:16.332Z,12.10
2023-05-26T01:06:18.939Z,12.10
2023-05-26T01:10:22.200Z,11.90
2023-05-26T01:14:30.642Z,11.60
2023-05-26T01:18:49.203Z,11.90
2023-05-26T01:23:15.580Z,11.00
2023-05-26T01:27:45.030Z,11.40
2023-05-26T01:31:47.197Z,11.50
2023-05-26T01:35:49.342Z,11.40
2023-05-26T01:39:51.487Z,11.70
2023-05-26T01:44:12.180Z,11.70
2023-05-26T01:48:18.135Z,12.10
2023-05-26T01:52:21.390Z,11.90
2023-05-26T01:56:26.924Z,11.70
2023-05-26T02:00:28.801Z,11.30
2023-05-26T02:04:30.897Z,11.30
2023-05-26T02:08:32.862Z,10.80
2023-05-26T02:12:34.810Z,11.30
2023-05-26T02:16:37.259Z,11.40
2023-05-26T02:20:39.334Z,11.30
2023-05-26T02:24:41.491Z,11.50
2023-05-26T02:28:43.561Z,11.30
2023-05-26T02:32:45.624Z,11.60
2023-05-26T02:36:47.700Z,11.60
2023-05-26T02:40:53.067Z,11.60
2023-05-26T02:44:55.095Z,11.60
2023-05-26T02:48:56.936Z,11.60
2023-05-26T02:52:59.282Z,11.10
2023-05-26T02:57:01.440Z,11.10
2023-05-26T03:01:03.968Z,11.40
2023-05-26T03:05:07.133Z,11.50
2023-05-26T03:09:09.756Z,11.10
2023-05-26T03:13:11.964Z,11.20
2023-05-26T03:17:14.404Z,11.30
2023-05-26T03:21:47.125Z,11.20
2023-05-26T03:25:42.150Z,10.70
2023-05-26T03:29:44.477Z,10.40
2023-05-26T03:33:46.773Z,10.20
2023-05-26T03:37:50.301Z,10.20
2023-05-26T03:41:52.341Z,10.40
2023-05-26T03:45:57.079Z,10.20
2023-05-26T03:49:59.122Z,10.30
2023-05-26T03:54:01.704Z,10.50
2023-05-26T03:58:04.624Z,10.80
2023-05-26T04:02:07.460Z,10.80
2023-05-26T04:06:09.615Z,11.00
2023-05-26T04:10:13.140Z,10.90
2023-05-26T04:14:15.265Z,10.30
2023-05-26T04:18:17.165Z,10.20
2023-05-26T04:22:19.235Z,10.30
2023-05-26T04:26:22.260Z,10.70
2023-05-26T04:30:47.049Z,10.20
2023-05-26T04:35:08.376Z,10.40
2023-05-26T04:39:13.375Z,9.90
2023-05-26T04:43:15.946Z,9.00
2023-05-26T04:47:18.101Z,9.70
2023-05-26T04:51:22.011Z,10.30
2023-05-26T04:55:24.281Z,10.60
2023-05-26T04:59:27.330Z,10.40
2023-05-26T05:03:30.217Z,11.00
2023-05-26T05:07:58.872Z,11.20
2023-05-26T05:12:02.673Z,11.20
2023-05-26T05:16:05.748Z,11.40
2023-05-26T05:20:15.931Z,11.60
2023-05-26T05:24:19.310Z,11.70
2023-05-26T05:28:21.451Z,11.90
2023-05-26T05:32:39.278Z,12.00
2023-05-26T05:36:41.362Z,12.00
2023-05-26T05:40:44.172Z,11.80
2023-05-26T05:44:47.123Z,11.80
2023-05-26T05:48:49.261Z,12.20
2023-05-26T05:52:56.882Z,10.90
2023-05-26T05:56:59.104Z,11.10
2023-05-26T06:01:01.742Z,11.40
2023-05-26T06:05:04.167Z,11.90
2023-05-26T06:09:08.792Z,12.40
2023-05-26T06:13:10.930Z,12.20
2023-05-26T06:17:13.227Z,12.90
2023-05-26T06:21:17.733Z,12.80
2023-05-26T06:25:23.624Z,12.30
2023-05-26T06:29:25.721Z,12.70
2023-05-26T06:33:27.890Z,12.90
2023-05-26T06:37:29.798Z,12.90
2023-05-26T06:41:31.838Z,13.70
2023-05-26T06:45:34.096Z,14.00
2023-05-26T06:49:36.193Z,14.60
2023-05-26T06:53:43.394Z,14.70
2023-05-26T06:57:47.816Z,14.50
2023-05-26T07:01:53.164Z,14.00
2023-05-26T07:05:57.714Z,14.70
2023-05-26T07:10:01.506Z,15.00
2023-05-26T07:14:04.690Z,14.70
2023-05-26T07:18:07.124Z,15.10
2023-05-26T07:22:09.929Z,15.00
2023-05-26T07:26:22.125Z,14.20
2023-05-26T07:30:24.932Z,13.90
2023-05-26T07:34:33.569Z,14.90
2023-05-26T07:38:35.591Z,14.60
2023-05-26T07:42:37.550Z,15.50
2023-05-26T07:46:39.832Z,15.50
2023-05-26T07:50:42.523Z,14.50
2023-05-26T07:54:44.460Z,15.40
2023-05-26T07:58:47.836Z,15.50
2023-05-26T08:02:50.146Z,14.40
2023-05-26T08:06:52.240Z,14.70
2023-05-26T08:10:54.364Z,14.80
2023-05-26T08:14:56.414Z,15.00
2023-05-26T08:18:58.482Z,15.20
2023-05-26T08:23:00.557Z,14.90
2023-05-26T08:27:03.026Z,15.80
2023-05-26T08:31:05.528Z,16.00
2023-05-26T08:35:07.801Z,16.20
2023-05-26T08:39:10.259Z,15.70
2023-05-26T08:43:14.855Z,15.70
2023-05-26T08:47:18.157Z,16.30
2023-05-26T08:51:22.565Z,15.70
2023-05-26T08:55:24.595Z,15.90
2023-05-26T08:59:29.963Z,15.80
2023-05-26T09:03:32.351Z,16.40
2023-05-26T09:07:34.675Z,15.90
2023-05-26T09:11:44.226Z,16.80
2023-05-26T09:15:59.542Z,16.90
2023-05-26T09:20:09.483Z,17.20
2023-05-26T09:24:12.115Z,16.40
2023-05-26T09:28:15.859Z,16.50
2023-05-26T09:32:18.175Z,17.10
2023-05-26T09:36:24.572Z,17.00
2023-05-26T09:40:26.594Z,16.90
2023-05-26T09:44:33.130Z,17.30
2023-05-26T09:48:37.360Z,17.00
2023-05-26T09:52:39.277Z,17.70
2023-05-26T09:56:47.719Z,17.00
2023-05-26T10:00:50.125Z,16.40
2023-05-26T10:04:54.466Z,16.70
2023-05-26T10:08:58.840Z,17.40
2023-05-26T10:13:02.315Z,16.80
2023-05-26T10:17:04.910Z,17.70
2023-05-26T10:21:09.729Z,17.90
2023-05-26T10:25:32.632Z,17.90
2023-05-26T10:29:48.257Z,18.10
2023-05-26T10:33:50.382Z,17.70
2023-05-26T10:38:04.507Z,18.10
2023-05-26T10:47:49.510Z,17.80
2023-05-26T10:51:55.416Z,18.90
2023-05-26T10:56:03.442Z,18.50
2023-05-26T11:00:27.611Z,17.30
2023-05-26T11:04:42.437Z,17.30
2023-05-26T11:08:49.868Z,17.50
2023-05-26T11:12:56.168Z,18.40
2023-05-26T11:17:04.359Z,18.70
2023-05-26T11:21:07.697Z,19.80
2023-05-26T11:25:10.314Z,20.20
2023-05-26T11:29:12.431Z,19.40
2023-05-26T11:33:15.890Z,19.10
2023-05-26T11:37:20.653Z,18.80
2023-05-26T11:41:27.678Z,19.00
2023-05-26T11:45:29.828Z,18.70
2023-05-26T11:49:31.913Z,18.50
2023-05-26T11:53:33.970Z,18.80
2023-05-26T11:57:37.190Z,18.30
2023-05-26T12:01:39.267Z,18.40
2023-05-26T12:05:41.457Z,18.50
2023-05-26T12:09:43.509Z,18.70
2023-05-26T12:13:46.269Z,18.60
2023-05-26T12:17:48.905Z,18.30
2023-05-26T12:21:52.219Z,18.70
2023-05-26T12:25:54.256Z,18.00
2023-05-26T12:29:56.222Z,19.10
2023-05-26T12:33:58.137Z,19.30
2023-05-26T12:38:00.107Z,19.40
2023-05-26T12:42:02.924Z,18.80
2023-05-26T12:46:05.393Z,18.80
2023-05-26T12:50:08.034Z,19.20
2023-05-26T12:54:11.081Z,19.10
2023-05-26T12:58:12.941Z,18.90
2023-05-26T13:02:14.927Z,19.30
2023-05-26T13:06:17.275Z,19.10
2023-05-26T13:10:19.213Z,19.20
2023-05-26T13:14:21.529Z,18.70
2023-05-26T13:18:24.824Z,19.20
2023-05-26T13:22:27.415Z,19.20
2023-05-26T13:26:29.695Z,18.50
2023-05-26T13:30:32.042Z,17.70
2023-05-26T13:34:33.946Z,17.60
2023-05-26T13:38:36.724Z,17.60
2023-05-26T13:42:38.953Z,17.80
2023-05-26T13:46:41.574Z,18.60
2023-05-26T13:50:43.440Z,19.20
2023-05-26T13:54:45.299Z,18.70
2023-05-26T13:58:47.553Z,19.10
2023-05-26T14:02:51.094Z,18.50
2023-05-26T14:06:58.785Z,18.10
2023-05-26T14:11:11.545Z,18.80
2023-05-26T14:15:13.933Z,18.80
2023-05-26T14:19:17.507Z,19.00
2023-05-26T14:23:28.694Z,19.30
2023-05-26T14:27:30.825Z,20.10
2023-05-26T14:31:32.842Z,20.30
2023-05-26T14:35:34.929Z,19.00
2023-05-26T14:39:36.880Z,19.00
2023-05-26T14:43:40.111Z,19.00
2023-05-26T14:47:42.064Z,19.10
2023-05-26T14:51:44.894Z,19.80
2023-05-26T14:55:46.722Z,19.50
2023-05-26T14:59:48.697Z,19.40
2023-05-26T15:04:12.593Z,18.90
2023-05-26T15:08:13.190Z,18.90
2023-05-26T15:12:15.337Z,20.10
2023-05-26T15:16:17.249Z,20.20
2023-05-26T15:20:19.235Z,20.60
2023-05-26T15:24:21.376Z,19.80
2023-05-26T15:28:26.318Z,19.70
2023-05-26T15:32:28.290Z,19.90
2023-05-26T15:36:30.545Z,19.00
2023-05-26T15:40:33.322Z,19.40
2023-05-26T15:44:35.479Z,19.00
2023-05-26T15:48:37.949Z,17.90
2023-05-26T15:52:40.321Z,17.90
2023-05-26T15:56:42.258Z,19.40
2023-05-26T16:00:44.157Z,20.20
2023-05-26T16:04:46.368Z,20.30
2023-05-26T16:08:48.320Z,20.10
2023-05-26T16:12:50.440Z,19.70
2023-05-26T16:16:52.569Z,18.80
2023-05-26T16:20:54.533Z,19.10
2023-05-26T16:24:56.521Z,18.90
2023-05-26T16:28:58.461Z,18.30
2023-05-26T16:33:00.971Z,18.70
2023-05-26T16:37:04.244Z,19.40
2023-05-26T16:41:07.236Z,20.00
2023-05-26T16:45:09.859Z,20.40
2023-05-26T16:49:12.886Z,19.90
2023-05-26T16:53:14.978Z,19.10
2023-05-26T16:57:16.926Z,19.20
2023-05-26T17:01:18.827Z,19.40
2023-05-26T17:05:20.858Z,19.40
2023-05-26T17:09:22.904Z,19.40
2023-05-26T17:13:24.913Z,18.60
2023-05-26T17:17:27.114Z,19.00
2023-05-26T17:21:29.064Z,19.00
2023-05-26T17:25:31.270Z,19.30
2023-05-26T17:29:33.408Z,19.50
2023-05-26T17:33:36.388Z,18.60
2023-05-26T17:37:38.329Z,19.10
2023-05-26T17:41:40.584Z,18.80
2023-05-26T17:45:42.711Z,19.00
2023-05-26T17:49:44.593Z,19.70
2023-05-26T17:53:46.481Z,19.50
2023-05-26T17:57:48.656Z,19.60
2023-05-26T18:01:50.855Z,19.70
2023-05-26T18:05:53.255Z,19.70
2023-05-26T18:09:55.333Z,19.70
2023-05-26T18:13:57.360Z,18.40
2023-05-26T18:18:00.002Z,18.30
2023-05-26T18:22:02.042Z,17.80
2023-05-26T18:26:04.199Z,18.10
2023-05-26T18:30:07.313Z,18.50
2023-05-26T18:34:23.921Z,19.00
2023-05-26T18:38:27.615Z,19.20
2023-05-26T18:42:29.621Z,19.20
2023-05-26T18:46:31.819Z,19.10
2023-05-26T18:50:34.561Z,19.00
2023-05-26T18:54:36.543Z,19.00
2023-05-26T18:58:38.571Z,18.90
2023-05-26T19:02:41.263Z,18.90
2023-05-26T19:06:43.538Z,18.70
2023-05-26T19:10:45.802Z,18.40
2023-05-26T19:14:47.893Z,18.10
2023-05-26T19:18:50.454Z,18.10
2023-05-26T19:22:52.554Z,18.10
2023-05-26T19:26:54.658Z,18.10
2023-05-26T19:30:56.848Z,17.70
2023-05-26T19:34:58.859Z,17.20
2023-05-26T19:39:00.915Z,17.30
2023-05-26T19:43:02.934Z,17.40
2023-05-26T19:47:05.119Z,17.10
2023-05-26T19:51:07.686Z,16.00
2023-05-26T19:55:10.491Z,16.20
2023-05-26T19:59:12.778Z,16.30
2023-05-26T20:03:16.203Z,16.70
2023-05-26T20:07:18.479Z,16.30
2023-05-26T20:11:22.558Z,16.00
2023-05-26T20:15:25.168Z,16.30
2023-05-26T20:19:27.417Z,16.10
2023-05-26T20:23:29.578Z,16.30
2023-05-26T20:27:32.293Z,16.20
2023-05-26T20:31:34.496Z,16.40
2023-05-26T20:35:36.741Z,15.60
2023-05-26T20:39:41.892Z,15.30
2023-05-26T20:43:44.162Z,15.60
2023-05-26T20:47:46.707Z,15.10
2023-05-26T20:51:48.868Z,15.30
2023-05-26T20:55:51.359Z,14.40
2023-05-26T20:59:53.572Z,14.20
2023-05-26T21:03:57.103Z,14.50
2023-05-26T21:07:59.262Z,14.00
2023-05-26T21:12:01.731Z,13.70
2023-05-26T21:16:04.581Z,14.50
2023-05-26T21:20:07.471Z,15.10
2023-05-26T21:24:09.566Z,14.70
2023-05-26T21:28:11.800Z,14.10
2023-05-26T21:32:14.124Z,14.70
2023-05-26T21:36:16.189Z,15.00
2023-05-26T21:40:18.421Z,15.40
2023-05-26T21:44:20.508Z,15.60
2023-05-26T21:48:22.446Z,15.60
2023-05-26T21:52:24.915Z,15.50
2023-05-26T21:56:27.062Z,15.00
2023-05-26T22:00:29.046Z,15.20
2023-05-26T22:04:31.738Z,15.40
2023-05-26T22:08:34.011Z,15.20
2023-05-26T22:12:36.409Z,14.20
2023-05-26T22:16:38.509Z,14.50
2023-05-26T22:20:40.711Z,14.90
2023-05-26T22:24:42.755Z,14.90
2023-05-26T22:28:44.868Z,14.50
2023-05-26T22:32:47.083Z,14.70
2023-05-26T22:36:50.134Z,14.80
2023-05-26T22:40:52.472Z,14.70
2023-05-26T22:44:54.505Z,13.90
2023-05-26T22:48:56.706Z,14.00
2023-05-26T22:52:58.830Z,13.40
2023-05-26T22:57:00.994Z,13.90
2023-05-26T23:01:03.104Z,14.00
2023-05-26T23:05:05.592Z,13.90
2023-05-26T23:09:07.805Z,13.90
2023-05-26T23:13:10.140Z,13.70
2023-05-26T23:17:12.180Z,13.30
2023-05-26T23:21:14.377Z,13.50
2023-05-26T23:25:16.704Z,13.70
2023-05-26T23:29:22.768Z,13.70
2023-05-26T23:33:24.875Z,13.80
2023-05-26T23:37:28.506Z,14.00
2023-05-26T23:41:30.688Z,13.80
2023-05-26T23:45:32.814Z,14.00
2023-05-26T23:49:34.774Z,14.10
2023-05-26T23:53:36.778Z,14.30
2023-05-26T23:57:39.251Z,13.80
